sensor_id;sensor_type;location;lat;lon;timestamp;P1;durP1;ratioP1;P2;durP2;ratioP2
6249;SDS011;3158;52.148;11.568;2022-10-16T00:03:35;0.30;;;0.30;;
6249;SDS011;3158;52.148;11.568;2022-10-16T00:08:36;0.32;;;0.32;;
6249;SDS011;3158;52.148;11.568;2022-10-16T00:13:38;0.20;;;0.20;;
6249;SDS011;3158;52.148;11.568;2022-10-16T00:18:40;0.45;;;0.45;;
6249;SDS011;3158;52.148;11.568;2022-10-16T00:23:41;0.30;;;0.30;;
6249;SDS011;3158;52.148;11.568;2022-10-16T00:28:42;0.50;;;0.50;;
6249;SDS011;3158;52.148;11.568;2022-10-16T00:33:43;0.35;;;0.35;;
6249;SDS011;3158;52.148;11.568;2022-10-16T00:38:44;0.50;;;0.50;;
6249;SDS011;3158;52.148;11.568;2022-10-16T00:43:50;0.40;;;0.40;;
6249;SDS011;3158;52.148;11.568;2022-10-16T00:48:54;0.55;;;0.55;;
6249;SDS011;3158;52.148;11.568;2022-10-16T00:53:56;0.52;;;0.52;;
6249;SDS011;3158;52.148;11.568;2022-10-16T00:58:58;0.70;;;0.70;;
6249;SDS011;3158;52.148;11.568;2022-10-16T01:04:00;0.60;;;0.60;;
6249;SDS011;3158;52.148;11.568;2022-10-16T01:09:04;0.68;;;0.68;;
6249;SDS011;3158;52.148;11.568;2022-10-16T01:14:11;0.65;;;0.65;;
6249;SDS011;3158;52.148;11.568;2022-10-16T01:19:19;0.88;;;0.60;;
6249;SDS011;3158;52.148;11.568;2022-10-16T01:29:29;0.60;;;0.60;;
6249;SDS011;3158;52.148;11.568;2022-10-16T01:34:35;0.57;;;0.57;;
6249;SDS011;3158;52.148;11.568;2022-10-16T01:39:38;0.70;;;0.70;;
6249;SDS011;3158;52.148;11.568;2022-10-16T01:44:40;0.65;;;0.65;;
6249;SDS011;3158;52.148;11.568;2022-10-16T01:49:42;0.70;;;0.70;;
6249;SDS011;3158;52.148;11.568;2022-10-16T01:54:44;0.55;;;0.55;;
6249;SDS011;3158;52.148;11.568;2022-10-16T01:59:48;0.50;;;0.50;;
6249;SDS011;3158;52.148;11.568;2022-10-16T02:04:51;0.50;;;0.50;;
6249;SDS011;3158;52.148;11.568;2022-10-16T02:09:54;0.65;;;0.65;;
6249;SDS011;3158;52.148;11.568;2022-10-16T02:14:55;0.60;;;0.60;;
6249;SDS011;3158;52.148;11.568;2022-10-16T02:19:57;0.40;;;0.40;;
6249;SDS011;3158;52.148;11.568;2022-10-16T02:30:13;0.60;;;0.60;;
6249;SDS011;3158;52.148;11.568;2022-10-16T02:35:16;0.68;;;0.68;;
6249;SDS011;3158;52.148;11.568;2022-10-16T02:40:18;0.60;;;0.60;;
6249;SDS011;3158;52.148;11.568;2022-10-16T02:45:20;0.52;;;0.52;;
6249;SDS011;3158;52.148;11.568;2022-10-16T02:50:22;0.93;;;0.90;;
6249;SDS011;3158;52.148;11.568;2022-10-16T02:55:25;0.70;;;0.70;;
6249;SDS011;3158;52.148;11.568;2022-10-16T03:00:27;0.60;;;0.60;;
6249;SDS011;3158;52.148;11.568;2022-10-16T03:05:29;0.82;;;0.82;;
6249;SDS011;3158;52.148;11.568;2022-10-16T03:10:30;0.80;;;0.60;;
6249;SDS011;3158;52.148;11.568;2022-10-16T03:15:31;0.68;;;0.68;;
6249;SDS011;3158;52.148;11.568;2022-10-16T03:20:32;0.80;;;0.80;;
6249;SDS011;3158;52.148;11.568;2022-10-16T03:25:33;0.88;;;0.88;;
6249;SDS011;3158;52.148;11.568;2022-10-16T03:30:35;1.08;;;0.98;;
6249;SDS011;3158;52.148;11.568;2022-10-16T03:35:36;0.75;;;0.70;;
6249;SDS011;3158;52.148;11.568;2022-10-16T03:40:37;0.63;;;0.63;;
6249;SDS011;3158;52.148;11.568;2022-10-16T03:45:38;0.73;;;0.73;;
6249;SDS011;3158;52.148;11.568;2022-10-16T03:50:40;1.10;;;0.80;;
6249;SDS011;3158;52.148;11.568;2022-10-16T03:55:41;0.75;;;0.60;;
6249;SDS011;3158;52.148;11.568;2022-10-16T04:00:43;1.95;;;0.80;;
6249;SDS011;3158;52.148;11.568;2022-10-16T04:05:45;0.60;;;0.60;;
6249;SDS011;3158;52.148;11.568;2022-10-16T04:10:46;0.68;;;0.68;;
6249;SDS011;3158;52.148;11.568;2022-10-16T04:15:47;1.25;;;0.80;;
6249;SDS011;3158;52.148;11.568;2022-10-16T04:20:48;0.70;;;0.70;;
6249;SDS011;3158;52.148;11.568;2022-10-16T04:25:49;0.95;;;0.65;;
6249;SDS011;3158;52.148;11.568;2022-10-16T04:30:51;0.73;;;0.73;;
6249;SDS011;3158;52.148;11.568;2022-10-16T04:35:56;0.70;;;0.70;;
6249;SDS011;3158;52.148;11.568;2022-10-16T04:40:57;0.70;;;0.70;;
6249;SDS011;3158;52.148;11.568;2022-10-16T04:45:58;0.60;;;0.60;;
6249;SDS011;3158;52.148;11.568;2022-10-16T04:50:59;0.70;;;0.70;;
6249;SDS011;3158;52.148;11.568;2022-10-16T04:56:01;1.05;;;0.90;;
6249;SDS011;3158;52.148;11.568;2022-10-16T05:01:02;0.60;;;0.55;;
6249;SDS011;3158;52.148;11.568;2022-10-16T05:06:05;0.63;;;0.63;;
6249;SDS011;3158;52.148;11.568;2022-10-16T05:11:06;0.70;;;0.70;;
6249;SDS011;3158;52.148;11.568;2022-10-16T05:16:07;1.83;;;0.77;;
6249;SDS011;3158;52.148;11.568;2022-10-16T05:21:08;0.65;;;0.65;;
6249;SDS011;3158;52.148;11.568;2022-10-16T05:26:09;0.50;;;0.50;;
6249;SDS011;3158;52.148;11.568;2022-10-16T05:31:10;0.70;;;0.70;;
6249;SDS011;3158;52.148;11.568;2022-10-16T05:36:11;0.57;;;0.57;;
6249;SDS011;3158;52.148;11.568;2022-10-16T05:41:13;0.80;;;0.80;;
6249;SDS011;3158;52.148;11.568;2022-10-16T05:46:14;0.60;;;0.60;;
6249;SDS011;3158;52.148;11.568;2022-10-16T05:51:15;0.90;;;0.90;;
6249;SDS011;3158;52.148;11.568;2022-10-16T05:56:16;1.02;;;1.02;;
6249;SDS011;3158;52.148;11.568;2022-10-16T06:01:18;0.90;;;0.90;;
6249;SDS011;3158;52.148;11.568;2022-10-16T06:06:21;1.90;;;1.05;;
6249;SDS011;3158;52.148;11.568;2022-10-16T06:11:24;0.90;;;0.90;;
6249;SDS011;3158;52.148;11.568;2022-10-16T06:16:25;0.98;;;0.98;;
6249;SDS011;3158;52.148;11.568;2022-10-16T06:21:27;1.10;;;1.10;;
6249;SDS011;3158;52.148;11.568;2022-10-16T06:26:29;1.27;;;1.20;;
6249;SDS011;3158;52.148;11.568;2022-10-16T06:31:31;1.00;;;1.00;;
6249;SDS011;3158;52.148;11.568;2022-10-16T06:36:33;1.00;;;1.00;;
6249;SDS011;3158;52.148;11.568;2022-10-16T06:41:34;0.73;;;0.73;;
6249;SDS011;3158;52.148;11.568;2022-10-16T06:46:48;0.90;;;0.90;;
6249;SDS011;3158;52.148;11.568;2022-10-16T06:51:49;1.17;;;1.17;;
6249;SDS011;3158;52.148;11.568;2022-10-16T06:56:51;3.20;;;1.35;;
6249;SDS011;3158;52.148;11.568;2022-10-16T07:01:54;1.50;;;1.40;;
6249;SDS011;3158;52.148;11.568;2022-10-16T07:06:55;1.27;;;1.27;;
6249;SDS011;3158;52.148;11.568;2022-10-16T07:11:56;1.48;;;1.38;;
6249;SDS011;3158;52.148;11.568;2022-10-16T07:16:57;1.35;;;1.35;;
6249;SDS011;3158;52.148;11.568;2022-10-16T07:21:58;1.30;;;1.30;;
6249;SDS011;3158;52.148;11.568;2022-10-16T07:26:59;1.10;;;1.10;;
6249;SDS011;3158;52.148;11.568;2022-10-16T07:32:01;1.10;;;1.10;;
6249;SDS011;3158;52.148;11.568;2022-10-16T07:37:02;1.08;;;1.08;;
6249;SDS011;3158;52.148;11.568;2022-10-16T07:42:03;1.10;;;1.10;;
6249;SDS011;3158;52.148;11.568;2022-10-16T07:47:04;1.10;;;1.10;;
6249;SDS011;3158;52.148;11.568;2022-10-16T07:52:05;1.02;;;1.00;;
6249;SDS011;3158;52.148;11.568;2022-10-16T07:57:06;2.78;;;1.02;;
6249;SDS011;3158;52.148;11.568;2022-10-16T08:02:07;1.20;;;1.20;;
6249;SDS011;3158;52.148;11.568;2022-10-16T08:07:08;1.17;;;1.17;;
6249;SDS011;3158;52.148;11.568;2022-10-16T08:12:10;1.65;;;0.95;;
6249;SDS011;3158;52.148;11.568;2022-10-16T08:17:13;1.05;;;1.05;;
6249;SDS011;3158;52.148;11.568;2022-10-16T08:22:14;1.35;;;1.35;;
6249;SDS011;3158;52.148;11.568;2022-10-16T08:27:15;0.98;;;0.98;;
6249;SDS011;3158;52.148;11.568;2022-10-16T08:32:16;1.02;;;0.93;;
6249;SDS011;3158;52.148;11.568;2022-10-16T08:37:17;0.70;;;0.70;;
6249;SDS011;3158;52.148;11.568;2022-10-16T08:42:41;0.63;;;0.63;;
6249;SDS011;3158;52.148;11.568;2022-10-16T08:47:48;0.40;;;0.40;;
6249;SDS011;3158;52.148;11.568;2022-10-16T08:52:50;0.30;;;0.30;;
6249;SDS011;3158;52.148;11.568;2022-10-16T08:57:52;0.30;;;0.30;;
6249;SDS011;3158;52.148;11.568;2022-10-16T09:08:19;0.35;;;0.30;;
6249;SDS011;3158;52.148;11.568;2022-10-16T09:13:24;0.32;;;0.32;;
6249;SDS011;3158;52.148;11.568;2022-10-16T09:23:34;0.30;;;0.30;;
6249;SDS011;3158;52.148;11.568;2022-10-16T09:28:36;0.30;;;0.30;;
6249;SDS011;3158;52.148;11.568;2022-10-16T09:33:37;0.30;;;0.30;;
6249;SDS011;3158;52.148;11.568;2022-10-16T09:38:40;0.20;;;0.20;;
6249;SDS011;3158;52.148;11.568;2022-10-16T09:48:56;0.40;;;0.30;;
6249;SDS011;3158;52.148;11.568;2022-10-16T09:54:01;1.48;;;0.30;;
6249;SDS011;3158;52.148;11.568;2022-10-16T09:59:08;0.30;;;0.30;;
6249;SDS011;3158;52.148;11.568;2022-10-16T10:04:09;0.30;;;0.30;;
6249;SDS011;3158;52.148;11.568;2022-10-16T10:09:15;0.60;;;0.30;;
6249;SDS011;3158;52.148;11.568;2022-10-16T10:19:22;1.67;;;0.20;;
6249;SDS011;3158;52.148;11.568;2022-10-16T10:24:24;0.20;;;0.20;;
6249;SDS011;3158;52.148;11.568;2022-10-16T10:29:28;0.30;;;0.30;;
6249;SDS011;3158;52.148;11.568;2022-10-16T10:39:43;0.20;;;0.20;;
6249;SDS011;3158;52.148;11.568;2022-10-16T10:44:55;0.20;;;0.20;;
6249;SDS011;3158;52.148;11.568;2022-10-16T11:05:27;0.10;;;0.10;;
6249;SDS011;3158;52.148;11.568;2022-10-16T11:10:38;0.10;;;0.10;;
6249;SDS011;3158;52.148;11.568;2022-10-16T11:15:41;1.55;;;0.20;;
6249;SDS011;3158;52.148;11.568;2022-10-16T11:20:48;0.20;;;0.20;;
6249;SDS011;3158;52.148;11.568;2022-10-16T11:25:49;0.10;;;0.10;;
6249;SDS011;3158;52.148;11.568;2022-10-16T11:30:53;4.85;;;0.20;;
6249;SDS011;3158;52.148;11.568;2022-10-16T11:35:58;0.10;;;0.10;;
6249;SDS011;3158;52.148;11.568;2022-10-16T11:41:03;0.20;;;0.20;;
6249;SDS011;3158;52.148;11.568;2022-10-16T11:46:08;0.10;;;0.10;;
6249;SDS011;3158;52.148;11.568;2022-10-16T11:51:25;0.20;;;0.20;;
6249;SDS011;3158;52.148;11.568;2022-10-16T11:56:31;0.10;;;0.10;;
6249;SDS011;3158;52.148;11.568;2022-10-16T12:01:44;2.30;;;0.17;;
6249;SDS011;3158;52.148;11.568;2022-10-16T12:06:55;0.60;;;0.20;;
6249;SDS011;3158;52.148;11.568;2022-10-16T12:11:59;0.10;;;0.10;;
6249;SDS011;3158;52.148;11.568;2022-10-16T12:17:01;0.10;;;0.10;;
6249;SDS011;3158;52.148;11.568;2022-10-16T12:22:03;0.10;;;0.10;;
6249;SDS011;3158;52.148;11.568;2022-10-16T12:27:05;0.20;;;0.10;;
6249;SDS011;3158;52.148;11.568;2022-10-16T12:32:22;0.15;;;0.10;;
6249;SDS011;3158;52.148;11.568;2022-10-16T12:37:35;0.22;;;0.10;;
6249;SDS011;3158;52.148;11.568;2022-10-16T12:42:37;0.10;;;0.10;;
6249;SDS011;3158;52.148;11.568;2022-10-16T12:47:47;0.25;;;0.10;;
6249;SDS011;3158;52.148;11.568;2022-10-16T12:52:48;0.15;;;0.15;;
6249;SDS011;3158;52.148;11.568;2022-10-16T13:08:30;0.10;;;0.10;;
6249;SDS011;3158;52.148;11.568;2022-10-16T13:29:23;0.10;;;0.10;;
6249;SDS011;3158;52.148;11.568;2022-10-16T13:34:24;0.50;;;0.25;;
6249;SDS011;3158;52.148;11.568;2022-10-16T13:39:26;0.30;;;0.10;;
6249;SDS011;3158;52.148;11.568;2022-10-16T13:44:28;0.65;;;0.13;;
6249;SDS011;3158;52.148;11.568;2022-10-16T13:49:30;0.10;;;0.10;;
6249;SDS011;3158;52.148;11.568;2022-10-16T13:54:31;0.10;;;0.10;;
6249;SDS011;3158;52.148;11.568;2022-10-16T13:59:33;0.10;;;0.10;;
6249;SDS011;3158;52.148;11.568;2022-10-16T14:04:35;0.10;;;0.10;;
6249;SDS011;3158;52.148;11.568;2022-10-16T14:09:39;0.10;;;0.10;;
6249;SDS011;3158;52.148;11.568;2022-10-16T14:14:41;0.10;;;0.10;;
6249;SDS011;3158;52.148;11.568;2022-10-16T14:19:45;0.10;;;0.05;;
6249;SDS011;3158;52.148;11.568;2022-10-16T14:24:47;1.05;;;0.10;;
6249;SDS011;3158;52.148;11.568;2022-10-16T14:29:48;0.10;;;0.10;;
6249;SDS011;3158;52.148;11.568;2022-10-16T14:34:53;0.10;;;0.10;;
6249;SDS011;3158;52.148;11.568;2022-10-16T14:39:54;0.13;;;0.13;;
6249;SDS011;3158;52.148;11.568;2022-10-16T14:44:56;0.10;;;0.10;;
6249;SDS011;3158;52.148;11.568;2022-10-16T14:49:57;0.10;;;0.10;;
6249;SDS011;3158;52.148;11.568;2022-10-16T14:54:59;0.10;;;0.10;;
6249;SDS011;3158;52.148;11.568;2022-10-16T15:00:00;1.58;;;0.10;;
6249;SDS011;3158;52.148;11.568;2022-10-16T15:05:10;0.10;;;0.10;;
6249;SDS011;3158;52.148;11.568;2022-10-16T15:10:15;1.25;;;0.10;;
6249;SDS011;3158;52.148;11.568;2022-10-16T15:20:27;1.45;;;0.10;;
6249;SDS011;3158;52.148;11.568;2022-10-16T15:25:36;0.40;;;0.10;;
6249;SDS011;3158;52.148;11.568;2022-10-16T15:30:39;0.10;;;0.10;;
6249;SDS011;3158;52.148;11.568;2022-10-16T15:35:41;0.22;;;0.10;;
6249;SDS011;3158;52.148;11.568;2022-10-16T15:40:42;1.73;;;0.10;;
6249;SDS011;3158;52.148;11.568;2022-10-16T15:45:43;2.65;;;0.20;;
6249;SDS011;3158;52.148;11.568;2022-10-16T15:50:45;0.10;;;0.10;;
6249;SDS011;3158;52.148;11.568;2022-10-16T15:55:46;0.28;;;0.10;;
6249;SDS011;3158;52.148;11.568;2022-10-16T16:00:54;0.40;;;0.40;;
6249;SDS011;3158;52.148;11.568;2022-10-16T16:05:56;0.60;;;0.60;;
6249;SDS011;3158;52.148;11.568;2022-10-16T16:11:00;0.70;;;0.70;;
6249;SDS011;3158;52.148;11.568;2022-10-16T16:16:04;1.58;;;0.45;;
6249;SDS011;3158;52.148;11.568;2022-10-16T16:21:05;0.50;;;0.40;;
6249;SDS011;3158;52.148;11.568;2022-10-16T16:26:09;0.90;;;0.30;;
6249;SDS011;3158;52.148;11.568;2022-10-16T16:31:11;0.20;;;0.20;;
6249;SDS011;3158;52.148;11.568;2022-10-16T16:36:12;0.30;;;0.30;;
6249;SDS011;3158;52.148;11.568;2022-10-16T16:41:21;0.40;;;0.40;;
6249;SDS011;3158;52.148;11.568;2022-10-16T16:46:22;1.67;;;0.98;;
6249;SDS011;3158;52.148;11.568;2022-10-16T16:51:23;0.60;;;0.60;;
6249;SDS011;3158;52.148;11.568;2022-10-16T16:56:25;0.70;;;0.70;;
6249;SDS011;3158;52.148;11.568;2022-10-16T17:01:26;2.17;;;0.70;;
6249;SDS011;3158;52.148;11.568;2022-10-16T17:06:28;1.90;;;0.80;;
6249;SDS011;3158;52.148;11.568;2022-10-16T17:11:30;0.93;;;0.93;;
6249;SDS011;3158;52.148;11.568;2022-10-16T17:16:33;1.10;;;1.10;;
6249;SDS011;3158;52.148;11.568;2022-10-16T17:21:35;1.55;;;1.45;;
6249;SDS011;3158;52.148;11.568;2022-10-16T17:26:36;2.28;;;1.92;;
6249;SDS011;3158;52.148;11.568;2022-10-16T17:31:40;1.60;;;1.60;;
6249;SDS011;3158;52.148;11.568;2022-10-16T17:36:42;2.00;;;1.90;;
6249;SDS011;3158;52.148;11.568;2022-10-16T17:41:43;4.75;;;3.33;;
6249;SDS011;3158;52.148;11.568;2022-10-16T17:46:48;2.78;;;2.28;;
6249;SDS011;3158;52.148;11.568;2022-10-16T17:51:51;2.67;;;2.35;;
6249;SDS011;3158;52.148;11.568;2022-10-16T17:56:52;2.95;;;2.55;;
6249;SDS011;3158;52.148;11.568;2022-10-16T18:01:53;1.58;;;1.48;;
6249;SDS011;3158;52.148;11.568;2022-10-16T18:06:54;2.05;;;1.85;;
6249;SDS011;3158;52.148;11.568;2022-10-16T18:11:55;2.15;;;2.00;;
6249;SDS011;3158;52.148;11.568;2022-10-16T18:17:00;2.53;;;1.95;;
6249;SDS011;3158;52.148;11.568;2022-10-16T18:22:01;3.38;;;2.85;;
6249;SDS011;3158;52.148;11.568;2022-10-16T18:27:02;4.55;;;3.45;;
6249;SDS011;3158;52.148;11.568;2022-10-16T18:32:03;3.75;;;3.17;;
6249;SDS011;3158;52.148;11.568;2022-10-16T18:37:04;2.45;;;2.22;;
6249;SDS011;3158;52.148;11.568;2022-10-16T18:42:06;2.55;;;2.38;;
6249;SDS011;3158;52.148;11.568;2022-10-16T18:47:07;2.28;;;2.17;;
6249;SDS011;3158;52.148;11.568;2022-10-16T18:52:08;1.90;;;1.85;;
6249;SDS011;3158;52.148;11.568;2022-10-16T18:57:09;1.23;;;1.17;;
6249;SDS011;3158;52.148;11.568;2022-10-16T19:02:10;1.77;;;1.67;;
6249;SDS011;3158;52.148;11.568;2022-10-16T19:07:11;1.73;;;1.63;;
6249;SDS011;3158;52.148;11.568;2022-10-16T19:12:14;1.30;;;1.30;;
6249;SDS011;3158;52.148;11.568;2022-10-16T19:17:15;1.88;;;1.77;;
6249;SDS011;3158;52.148;11.568;2022-10-16T19:22:16;1.83;;;1.70;;
6249;SDS011;3158;52.148;11.568;2022-10-16T19:27:29;2.10;;;1.30;;
6249;SDS011;3158;52.148;11.568;2022-10-16T19:32:31;2.83;;;1.67;;
6249;SDS011;3158;52.148;11.568;2022-10-16T19:37:32;1.30;;;1.30;;
6249;SDS011;3158;52.148;11.568;2022-10-16T19:42:33;2.88;;;1.83;;
6249;SDS011;3158;52.148;11.568;2022-10-16T19:47:35;2.92;;;1.35;;
6249;SDS011;3158;52.148;11.568;2022-10-16T19:52:37;1.77;;;1.77;;
6249;SDS011;3158;52.148;11.568;2022-10-16T19:57:38;2.13;;;1.80;;
6249;SDS011;3158;52.148;11.568;2022-10-16T20:02:39;1.88;;;1.77;;
6249;SDS011;3158;52.148;11.568;2022-10-16T20:07:41;3.17;;;2.20;;
6249;SDS011;3158;52.148;11.568;2022-10-16T20:12:42;2.10;;;2.00;;
6249;SDS011;3158;52.148;11.568;2022-10-16T20:17:43;1.50;;;1.50;;
6249;SDS011;3158;52.148;11.568;2022-10-16T20:22:44;2.40;;;2.28;;
6249;SDS011;3158;52.148;11.568;2022-10-16T20:27:45;1.83;;;1.77;;
6249;SDS011;3158;52.148;11.568;2022-10-16T20:32:46;2.05;;;1.80;;
6249;SDS011;3158;52.148;11.568;2022-10-16T20:37:48;1.95;;;1.70;;
6249;SDS011;3158;52.148;11.568;2022-10-16T20:42:49;2.75;;;2.53;;
6249;SDS011;3158;52.148;11.568;2022-10-16T20:47:50;1.77;;;1.70;;
6249;SDS011;3158;52.148;11.568;2022-10-16T20:52:51;4.53;;;3.05;;
6249;SDS011;3158;52.148;11.568;2022-10-16T20:57:53;2.70;;;2.60;;
6249;SDS011;3158;52.148;11.568;2022-10-16T21:02:55;5.30;;;2.60;;
6249;SDS011;3158;52.148;11.568;2022-10-16T21:07:56;3.92;;;2.72;;
6249;SDS011;3158;52.148;11.568;2022-10-16T21:12:58;2.83;;;2.63;;
6249;SDS011;3158;52.148;11.568;2022-10-16T21:17:59;3.75;;;2.55;;
6249;SDS011;3158;52.148;11.568;2022-10-16T21:23:03;2.33;;;2.10;;
6249;SDS011;3158;52.148;11.568;2022-10-16T21:28:04;3.83;;;2.10;;
6249;SDS011;3158;52.148;11.568;2022-10-16T21:33:05;3.03;;;2.83;;
6249;SDS011;3158;52.148;11.568;2022-10-16T21:38:06;2.42;;;2.33;;
6249;SDS011;3158;52.148;11.568;2022-10-16T21:43:07;2.45;;;2.13;;
6249;SDS011;3158;52.148;11.568;2022-10-16T21:48:10;2.20;;;2.05;;
6249;SDS011;3158;52.148;11.568;2022-10-16T21:53:11;2.17;;;2.08;;
6249;SDS011;3158;52.148;11.568;2022-10-16T21:58:12;4.10;;;2.00;;
6249;SDS011;3158;52.148;11.568;2022-10-16T22:03:13;1.95;;;1.85;;
6249;SDS011;3158;52.148;11.568;2022-10-16T22:08:14;1.92;;;1.83;;
6249;SDS011;3158;52.148;11.568;2022-10-16T22:13:16;2.60;;;1.88;;
6249;SDS011;3158;52.148;11.568;2022-10-16T22:18:17;2.00;;;1.90;;
6249;SDS011;3158;52.148;11.568;2022-10-16T22:23:18;2.42;;;1.75;;
6249;SDS011;3158;52.148;11.568;2022-10-16T22:28:19;1.95;;;1.80;;
6249;SDS011;3158;52.148;11.568;2022-10-16T22:33:20;1.98;;;1.70;;
6249;SDS011;3158;52.148;11.568;2022-10-16T22:38:21;1.75;;;1.65;;
6249;SDS011;3158;52.148;11.568;2022-10-16T22:43:23;1.80;;;1.73;;
6249;SDS011;3158;52.148;11.568;2022-10-16T22:48:24;1.92;;;1.83;;
6249;SDS011;3158;52.148;11.568;2022-10-16T22:53:25;1.33;;;1.33;;
6249;SDS011;3158;52.148;11.568;2022-10-16T22:58:26;1.88;;;1.77;;
6249;SDS011;3158;52.148;11.568;2022-10-16T23:03:27;1.90;;;1.77;;
6249;SDS011;3158;52.148;11.568;2022-10-16T23:08:28;2.05;;;1.45;;
6249;SDS011;3158;52.148;11.568;2022-10-16T23:13:29;1.85;;;1.58;;
6249;SDS011;3158;52.148;11.568;2022-10-16T23:18:31;1.40;;;1.40;;
6249;SDS011;3158;52.148;11.568;2022-10-16T23:23:34;1.55;;;1.55;;
6249;SDS011;3158;52.148;11.568;2022-10-16T23:28:36;2.35;;;1.30;;
6249;SDS011;3158;52.148;11.568;2022-10-16T23:33:37;3.10;;;1.83;;
6249;SDS011;3158;52.148;11.568;2022-10-16T23:38:38;1.50;;;1.50;;
6249;SDS011;3158;52.148;11.568;2022-10-16T23:43:40;1.20;;;1.10;;
6249;SDS011;3158;52.148;11.568;2022-10-16T23:48:41;1.40;;;1.40;;
6249;SDS011;3158;52.148;11.568;2022-10-16T23:53:43;1.55;;;1.50;;
6249;SDS011;3158;52.148;11.568;2022-10-16T23:58:44;1.35;;;1.17;;
